createdAt,value
2018-11-06T00:02:18.314Z,91.72
2018-11-06T00:04:52.623Z,91.89
2018-11-06T00:07:20.086Z,91.34
2018-11-06T00:09:48.394Z,90.46
2018-11-06T00:12:16.622Z,90.90
2018-11-06T00:14:44.191Z,89.84
2018-11-06T00:17:11.819Z,90.39
2018-11-06T00:19:39.771Z,90.63
2018-11-06T00:22:07.053Z,90.46
2018-11-06T00:24:34.774Z,90.80
2018-11-06T00:27:03.469Z,91.26
2018-11-06T00:29:30.757Z,91.59
2018-11-06T00:31:58.324Z,91.50
2018-11-06T00:34:26.648Z,90.99
2018-11-06T00:36:55.055Z,91.60
2018-11-06T00:39:24.501Z,91.71
2018-11-06T00:41:53.386Z,91.75
2018-11-06T00:44:20.808Z,91.71
2018-11-06T00:46:48.186Z,91.48
2018-11-06T00:49:17.522Z,91.30
2018-11-06T00:51:44.775Z,90.80
2018-11-06T00:54:13.048Z,90.91
2018-11-06T00:56:42.691Z,91.08
2018-11-06T00:59:11.690Z,91.83
2018-11-06T01:01:39.348Z,92.13
2018-11-06T01:04:09.461Z,92.17
2018-11-06T01:06:37.054Z,92.46
2018-11-06T01:09:06.176Z,92.47
2018-11-06T01:11:34.017Z,92.32
2018-11-06T01:14:02.460Z,92.06
2018-11-06T01:16:29.902Z,90.82
2018-11-06T01:18:57.204Z,90.17
2018-11-06T01:21:26.103Z,90.62
2018-11-06T01:23:53.500Z,90.16
2018-11-06T01:26:20.849Z,90.23
2018-11-06T01:28:49.680Z,90.66
2018-11-06T01:31:17.147Z,90.65
2018-11-06T01:33:44.582Z,90.94
2018-11-06T01:36:11.905Z,91.13
2018-11-06T01:38:39.512Z,91.99
2018-11-06T01:41:06.864Z,92.94
2018-11-06T01:43:34.241Z,92.35
2018-11-06T01:46:02.599Z,92.38
2018-11-06T01:48:36.920Z,92.75
2018-11-06T01:51:04.508Z,93.31
2018-11-06T01:53:31.867Z,92.36
2018-11-06T01:55:59.320Z,93.02
2018-11-06T01:58:26.809Z,92.34
2018-11-06T02:00:54.234Z,92.78
2018-11-06T02:03:21.489Z,93.52
2018-11-06T02:05:49.017Z,93.27
2018-11-06T02:08:16.463Z,92.56
2018-11-06T02:10:44.292Z,91.95
2018-11-06T02:13:12.497Z,91.29
2018-11-06T02:15:41.248Z,90.88
2018-11-06T02:18:08.656Z,90.46
2018-11-06T02:20:36.666Z,90.66
2018-11-06T02:23:04.200Z,90.48
2018-11-06T02:25:31.788Z,90.35
2018-11-06T02:27:59.611Z,90.63
2018-11-06T02:30:26.940Z,90.97
2018-11-06T02:32:55.799Z,91.44
2018-11-06T02:35:24.213Z,90.34
2018-11-06T02:37:51.811Z,90.08
2018-11-06T02:40:19.913Z,90.96
2018-11-06T02:42:47.253Z,91.49
2018-11-06T02:45:15.658Z,91.30
2018-11-06T02:47:43.239Z,90.96
2018-11-06T02:50:11.548Z,90.08
2018-11-06T02:52:40.755Z,89.96
2018-11-06T02:55:08.721Z,90.50
2018-11-06T02:57:38.475Z,90.10
2018-11-06T03:00:13.666Z,91.05
2018-11-06T03:02:42.129Z,90.72
2018-11-06T03:05:10.342Z,90.59
2018-11-06T03:07:37.784Z,89.87
2018-11-06T03:10:05.608Z,89.82
2018-11-06T03:12:33.606Z,90.31
2018-11-06T03:15:00.992Z,91.37
2018-11-06T03:17:30.399Z,91.57
2018-11-06T03:19:58.593Z,91.62
2018-11-06T03:22:26.189Z,90.86
2018-11-06T03:24:54.281Z,90.30
2018-11-06T03:27:21.634Z,89.64
2018-11-06T03:29:49.402Z,89.97
2018-11-06T03:32:17.387Z,90.09
2018-11-06T03:34:44.929Z,90.27
2018-11-06T03:37:12.402Z,89.37
2018-11-06T03:39:39.789Z,89.66
2018-11-06T03:42:07.228Z,89.01
2018-11-06T03:44:35.663Z,89.28
2018-11-06T03:47:03.017Z,89.20
2018-11-06T03:49:30.347Z,89.31
2018-11-06T03:51:57.713Z,89.66
2018-11-06T03:54:25.325Z,89.90
2018-11-06T03:56:55.001Z,89.85
2018-11-06T03:59:22.354Z,90.92
2018-11-06T04:01:51.070Z,90.63
2018-11-06T04:04:18.571Z,90.00
2018-11-06T04:06:47.307Z,89.72
2018-11-06T04:09:16.697Z,89.36
2018-11-06T04:11:46.844Z,90.30
2018-11-06T04:14:15.765Z,89.90
2018-11-06T04:16:43.140Z,89.95
2018-11-06T04:19:12.057Z,90.79
2018-11-06T04:21:40.180Z,91.10
2018-11-06T04:24:13.243Z,90.80
2018-11-06T04:26:42.744Z,90.67
2018-11-06T04:29:10.649Z,90.72
2018-11-06T04:31:38.614Z,91.21
2018-11-06T04:34:06.383Z,91.02
2018-11-06T04:36:33.756Z,90.69
2018-11-06T04:39:01.121Z,91.53
2018-11-06T04:41:30.711Z,91.23
2018-11-06T04:43:58.002Z,91.57
2018-11-06T04:46:26.211Z,92.32
2018-11-06T04:48:54.565Z,92.55
2018-11-06T04:51:21.938Z,93.29
2018-11-06T04:53:49.674Z,92.28
2018-11-06T04:56:17.057Z,92.06
2018-11-06T04:58:46.632Z,90.66
2018-11-06T05:01:14.499Z,90.20
2018-11-06T05:03:47.322Z,90.64
2018-11-06T05:06:17.634Z,90.29
2018-11-06T05:08:45.808Z,90.71
2018-11-06T05:11:14.475Z,90.19
2018-11-06T05:13:42.305Z,90.65
2018-11-06T05:16:11.881Z,91.93
2018-11-06T05:18:39.287Z,92.41
2018-11-06T05:21:08.425Z,91.94
2018-11-06T05:23:36.037Z,91.32
2018-11-06T05:26:03.923Z,90.86
2018-11-06T05:28:31.373Z,91.39
2018-11-06T05:31:00.796Z,91.74
2018-11-06T05:33:28.227Z,90.97
2018-11-06T05:35:55.653Z,90.93
2018-11-06T05:38:24.142Z,90.98
2018-11-06T05:40:59.820Z,90.32
2018-11-06T05:43:28.644Z,90.69
2018-11-06T05:45:58.815Z,91.35
2018-11-06T05:48:27.867Z,91.58
2018-11-06T05:50:57.033Z,92.15
2018-11-06T05:53:24.391Z,92.35
2018-11-06T05:55:52.852Z,91.86
2018-11-06T05:58:20.249Z,91.74
2018-11-06T06:00:48.592Z,91.38
2018-11-06T06:03:16.010Z,91.58
2018-11-06T06:05:50.452Z,92.53
2018-11-06T06:08:22.356Z,93.78
2018-11-06T06:10:51.842Z,93.78
2018-11-06T06:13:19.337Z,93.80
2018-11-06T06:15:46.685Z,94.13
2018-11-06T06:18:15.778Z,94.46
2018-11-06T06:20:45.422Z,94.36
2018-11-06T06:23:15.604Z,94.39
2018-11-06T06:25:44.398Z,92.32
2018-11-06T06:28:11.948Z,91.54
2018-11-06T06:30:40.963Z,89.62
2018-11-06T06:33:08.309Z,91.56
2018-11-06T06:35:36.380Z,91.47
2018-11-06T06:38:05.714Z,91.78
2018-11-06T06:40:33.924Z,92.09
2018-11-06T06:43:04.009Z,90.83
2018-11-06T06:45:31.953Z,90.93
2018-11-06T06:48:00.755Z,90.96
2018-11-06T06:50:30.453Z,92.21
2018-11-06T06:52:59.216Z,90.10
2018-11-06T06:55:27.424Z,87.47
2018-11-06T06:57:54.928Z,85.88
2018-11-06T07:00:23.801Z,84.33
2018-11-06T07:02:52.755Z,85.28
2018-11-06T07:05:23.669Z,83.13
2018-11-06T07:07:51.085Z,82.56
2018-11-06T07:10:20.349Z,79.49
2018-11-06T07:12:50.381Z,77.30
2018-11-06T07:15:22.053Z,73.31
2018-11-06T07:17:51.599Z,70.62
2018-11-06T07:20:21.456Z,69.08
2018-11-06T07:22:51.000Z,66.78
2018-11-06T07:25:18.411Z,62.19
2018-11-06T07:27:46.713Z,59.31
2018-11-06T07:30:16.365Z,56.00
2018-11-06T07:32:45.554Z,55.09
2018-11-06T07:35:13.684Z,54.70
2018-11-06T07:37:41.475Z,56.49
2018-11-06T07:40:16.040Z,59.63
2018-11-06T07:42:44.111Z,60.98
2018-11-06T07:45:16.162Z,61.44
2018-11-06T07:47:43.826Z,57.64
2018-11-06T07:50:12.519Z,57.55
2018-11-06T07:52:40.969Z,58.02
2018-11-06T07:55:11.114Z,57.27
2018-11-06T07:57:40.507Z,58.11
2018-11-06T08:00:11.764Z,61.13
2018-11-06T08:02:40.092Z,64.22
2018-11-06T08:05:09.625Z,63.13
2018-11-06T08:07:39.221Z,64.30
2018-11-06T08:10:10.392Z,61.16
2018-11-06T08:12:38.455Z,60.46
2018-11-06T08:15:06.524Z,57.07
2018-11-06T08:17:39.723Z,58.96
2018-11-06T08:20:07.337Z,62.66
2018-11-06T08:22:37.230Z,65.22
2018-11-06T08:25:05.185Z,65.43
2018-11-06T08:27:33.237Z,66.80
2018-11-06T08:30:03.583Z,66.30
2018-11-06T08:32:31.895Z,64.55
2018-11-06T08:34:58.800Z,62.35
2018-11-06T08:37:32.414Z,62.57
2018-11-06T08:40:01.627Z,59.47
2018-11-06T08:42:29.079Z,59.46
2018-11-06T08:44:57.927Z,63.08
2018-11-06T08:47:27.278Z,64.65
2018-11-06T08:49:54.728Z,63.40
2018-11-06T08:52:23.005Z,65.72
2018-11-06T08:54:54.003Z,65.60
2018-11-06T08:57:21.483Z,66.19
2018-11-06T08:59:51.049Z,62.55
2018-11-06T09:02:18.506Z,60.53
2018-11-06T09:04:46.541Z,60.64
2018-11-06T09:07:15.779Z,59.04
2018-11-06T09:09:46.003Z,56.45
2018-11-06T09:12:14.063Z,53.23
2018-11-06T09:14:41.449Z,51.47
2018-11-06T09:17:10.804Z,50.56
2018-11-06T09:19:39.747Z,51.96
2018-11-06T09:22:08.790Z,53.85
2018-11-06T09:24:36.378Z,57.00
2018-11-06T09:27:04.871Z,59.22
2018-11-06T09:29:33.288Z,60.35
2018-11-06T09:32:01.963Z,62.19
2018-11-06T09:34:31.069Z,62.43
2018-11-06T09:36:59.005Z,62.46
2018-11-06T09:39:26.939Z,62.76
2018-11-06T09:41:54.651Z,63.01
2018-11-06T09:44:22.760Z,62.74
2018-11-06T09:46:51.614Z,63.31
2018-11-06T09:49:19.967Z,63.93
2018-11-06T09:51:47.699Z,65.29
2018-11-06T09:54:15.193Z,67.36
2018-11-06T09:56:43.183Z,67.58
2018-11-06T09:59:12.018Z,68.52
2018-11-06T10:01:41.087Z,70.29
2018-11-06T10:04:08.501Z,69.50
2018-11-06T10:06:38.762Z,71.69
2018-11-06T10:09:08.106Z,72.55
2018-11-06T10:11:35.944Z,72.74
2018-11-06T10:14:04.505Z,72.63
2018-11-06T10:16:31.908Z,72.23
2018-11-06T10:19:01.355Z,73.04
2018-11-06T10:21:29.498Z,73.37
2018-11-06T10:23:57.012Z,73.41
2018-11-06T10:26:24.736Z,73.91
2018-11-06T10:28:52.379Z,73.53
2018-11-06T10:31:20.562Z,72.62
2018-11-06T10:33:49.777Z,72.68
2018-11-06T10:36:17.353Z,72.30
2018-11-06T10:38:44.824Z,72.23
2018-11-06T10:41:13.293Z,71.53
2018-11-06T10:43:42.447Z,69.21
2018-11-06T10:46:12.877Z,68.58
2018-11-06T10:48:41.807Z,68.17
2018-11-06T10:51:09.192Z,68.75
2018-11-06T10:53:36.796Z,68.93
2018-11-06T10:56:05.063Z,68.13
2018-11-06T10:58:34.056Z,68.28
2018-11-06T11:01:08.965Z,67.20
2018-11-06T11:03:40.185Z,65.06
2018-11-06T11:06:10.659Z,65.65
2018-11-06T11:08:40.196Z,66.48
2018-11-06T11:11:09.777Z,64.32
2018-11-06T11:13:39.544Z,63.12
2018-11-06T11:16:09.732Z,64.23
2018-11-06T11:18:37.068Z,64.57
2018-11-06T11:21:05.941Z,65.50
2018-11-06T11:23:33.316Z,65.02
2018-11-06T11:26:01.709Z,64.44
2018-11-06T11:28:31.265Z,64.86
2018-11-06T11:30:58.880Z,62.72
2018-11-06T11:33:26.241Z,63.35
2018-11-06T11:35:53.571Z,63.42
2018-11-06T11:38:20.866Z,62.34
2018-11-06T11:40:48.774Z,60.78
2018-11-06T11:43:18.486Z,62.88
2018-11-06T11:45:46.063Z,63.31
2018-11-06T11:48:13.452Z,62.21
2018-11-06T11:50:41.526Z,62.76
2018-11-06T11:53:09.397Z,63.36
2018-11-06T11:55:37.372Z,62.86
2018-11-06T11:58:06.849Z,63.06
2018-11-06T12:00:37.408Z,62.53
2018-11-06T12:03:08.106Z,60.86
2018-11-06T12:05:35.491Z,60.24
2018-11-06T12:08:03.653Z,60.90
2018-11-06T12:10:31.059Z,59.83
2018-11-06T12:12:59.832Z,58.09
2018-11-06T12:15:30.001Z,56.70
2018-11-06T12:17:59.680Z,57.76
2018-11-06T12:20:29.954Z,58.58
2018-11-06T12:22:57.202Z,59.02
2018-11-06T12:25:24.757Z,58.07
2018-11-06T12:27:54.148Z,57.82
2018-11-06T12:30:23.337Z,56.59
2018-11-06T12:32:50.675Z,56.95
2018-11-06T12:35:17.962Z,57.09
2018-11-06T12:37:45.949Z,56.91
2018-11-06T12:40:14.235Z,57.43
2018-11-06T12:42:42.485Z,57.20
2018-11-06T12:45:15.347Z,56.56
2018-11-06T12:47:44.334Z,56.83
2018-11-06T12:50:11.806Z,57.42
2018-11-06T12:52:39.550Z,58.33
2018-11-06T12:55:09.007Z,57.31
2018-11-06T12:57:38.463Z,56.20
2018-11-06T13:00:09.991Z,57.08
2018-11-06T13:02:38.106Z,57.18
2018-11-06T13:05:06.278Z,55.64
2018-11-06T13:07:36.455Z,56.02
2018-11-06T13:10:04.817Z,55.79
2018-11-06T13:12:32.246Z,56.16
2018-11-06T13:15:00.575Z,57.97
2018-11-06T13:17:29.689Z,58.49
2018-11-06T13:19:56.990Z,58.64
2018-11-06T13:22:26.587Z,57.75
2018-11-06T13:24:54.059Z,58.05
2018-11-06T13:27:21.814Z,57.48
2018-11-06T13:29:50.010Z,57.30
2018-11-06T13:32:17.401Z,57.84
2018-11-06T13:34:45.955Z,57.82
2018-11-06T13:37:13.983Z,58.43
2018-11-06T13:39:42.628Z,57.47
2018-11-06T13:42:09.999Z,56.12
2018-11-06T13:44:38.420Z,56.91
2018-11-06T13:47:05.649Z,56.50
2018-11-06T13:49:33.652Z,56.63
2018-11-06T13:58:59.635Z,59.70
2018-11-06T14:01:29.889Z,59.48
2018-11-06T14:03:58.396Z,59.13
2018-11-06T14:06:26.759Z,59.30
2018-11-06T14:08:55.203Z,58.58
2018-11-06T14:11:25.485Z,61.11
2018-11-06T14:13:52.936Z,62.27
2018-11-06T14:16:20.522Z,63.26
2018-11-06T14:18:49.329Z,64.19
2018-11-06T14:21:16.921Z,64.45
2018-11-06T14:23:46.301Z,65.12
2018-11-06T14:26:14.384Z,66.08
2018-11-06T14:28:41.888Z,65.77
2018-11-06T14:31:09.961Z,66.51
2018-11-06T14:33:39.364Z,67.13
2018-11-06T14:36:08.456Z,67.58
2018-11-06T14:38:36.687Z,67.21
2018-11-06T14:41:04.849Z,67.19
2018-11-06T14:43:36.099Z,67.61
2018-11-06T14:46:04.444Z,68.21
2018-11-06T14:48:32.635Z,68.03
2018-11-06T14:50:59.892Z,67.89
2018-11-06T14:53:27.957Z,69.48
2018-11-06T14:55:55.298Z,70.12
2018-11-06T14:58:22.886Z,69.53
2018-11-06T15:00:51.253Z,70.01
2018-11-06T15:03:18.801Z,69.71
2018-11-06T15:05:47.650Z,70.03
2018-11-06T15:08:15.092Z,70.00
2018-11-06T15:10:43.890Z,71.36
2018-11-06T15:13:11.348Z,72.75
2018-11-06T15:15:42.459Z,72.24
2018-11-06T15:18:10.755Z,72.31
2018-11-06T15:20:38.711Z,71.83
2018-11-06T15:23:06.155Z,71.86
2018-11-06T15:25:33.695Z,71.74
2018-11-06T15:28:03.221Z,71.93
2018-11-06T15:30:30.671Z,72.44
2018-11-06T15:32:58.147Z,73.27
2018-11-06T15:35:25.571Z,72.79
2018-11-06T15:37:53.075Z,73.62
2018-11-06T15:40:21.794Z,72.83
2018-11-06T15:42:52.783Z,72.57
2018-11-06T15:45:21.469Z,72.37
2018-11-06T15:47:49.254Z,71.61
2018-11-06T15:50:18.488Z,72.27
2018-11-06T15:52:49.414Z,72.99
2018-11-06T15:55:16.740Z,74.32
2018-11-06T15:57:44.224Z,76.55
2018-11-06T16:00:15.735Z,79.43
2018-11-06T16:02:44.224Z,82.10
2018-11-06T16:05:12.051Z,83.93
2018-11-06T16:07:41.304Z,85.53
2018-11-06T16:10:13.379Z,85.61
2018-11-06T16:12:41.549Z,86.55
2018-11-06T16:15:12.301Z,86.10
2018-11-06T16:17:39.667Z,86.08
2018-11-06T16:20:08.910Z,85.68
2018-11-06T16:22:36.391Z,85.66
2018-11-06T16:25:05.261Z,85.81
2018-11-06T16:27:32.624Z,85.14
2018-11-06T16:30:00.053Z,83.55
2018-11-06T16:32:28.089Z,83.40
2018-11-06T16:34:56.270Z,83.58
2018-11-06T16:37:24.453Z,84.01
2018-11-06T16:39:54.039Z,83.65
2018-11-06T16:42:21.433Z,83.53
2018-11-06T16:44:48.954Z,84.05
2018-11-06T16:47:16.362Z,83.35
2018-11-06T16:49:45.034Z,81.93
2018-11-06T16:52:13.262Z,81.31
2018-11-06T16:54:40.702Z,80.86
2018-11-06T16:57:08.261Z,81.58
2018-11-06T16:59:35.839Z,81.91
2018-11-06T17:02:03.260Z,81.84
2018-11-06T17:04:32.889Z,82.04
2018-11-06T17:07:01.696Z,82.80
2018-11-06T17:09:29.833Z,82.16
2018-11-06T17:12:00.330Z,82.74
2018-11-06T17:14:27.816Z,82.62
2018-11-06T17:16:56.182Z,82.70
2018-11-06T17:19:23.604Z,83.37
2018-11-06T17:21:50.956Z,82.74
2018-11-06T17:24:18.351Z,82.27
2018-11-06T17:26:46.560Z,82.54
2018-11-06T17:29:15.627Z,82.52
2018-11-06T17:31:43.693Z,82.69
2018-11-06T17:34:10.955Z,82.33
2018-11-06T17:36:38.404Z,82.81
2018-11-06T17:39:08.665Z,82.53
2018-11-06T17:41:36.106Z,81.89
2018-11-06T17:44:04.743Z,82.47
2018-11-06T17:46:32.205Z,83.02
2018-11-06T17:49:01.306Z,82.96
2018-11-06T17:51:28.921Z,82.76
2018-11-06T17:53:56.374Z,82.62
2018-11-06T17:56:23.906Z,82.48
2018-11-06T17:58:51.651Z,82.89
2018-11-06T18:01:19.071Z,83.09
2018-11-06T18:03:48.654Z,83.11
2018-11-06T18:06:15.835Z,83.24
2018-11-06T18:08:45.487Z,84.38
2018-11-06T18:11:13.294Z,83.82
2018-11-06T18:13:40.705Z,83.61
2018-11-06T18:16:08.312Z,83.74
2018-11-06T18:18:35.772Z,83.07
2018-11-06T18:21:03.651Z,83.59
2018-11-06T18:23:32.200Z,83.90
2018-11-06T18:25:59.572Z,84.67
2018-11-06T18:28:27.037Z,84.59
2018-11-06T18:30:57.238Z,84.74
2018-11-06T18:33:27.266Z,84.54
2018-11-06T18:35:55.712Z,84.36
2018-11-06T18:38:23.100Z,84.38
2018-11-06T18:40:50.490Z,83.46
2018-11-06T18:43:18.337Z,82.71
2018-11-06T18:45:46.373Z,82.24
2018-11-06T18:48:14.928Z,80.31
2018-11-06T18:50:42.785Z,80.25
2018-11-06T18:53:10.249Z,80.32
2018-11-06T18:55:37.581Z,80.38
2018-11-06T18:58:05.333Z,79.01
2018-11-06T19:02:02.199Z,79.58
2018-11-06T19:04:31.679Z,78.71
2018-11-06T19:06:59.029Z,78.25
2018-11-06T19:09:27.114Z,77.70
2018-11-06T19:11:57.547Z,77.30
2018-11-06T19:14:25.020Z,76.70
2018-11-06T19:16:52.849Z,77.02
2018-11-06T19:19:21.454Z,76.31
2018-11-06T19:21:50.753Z,75.67
2018-11-06T19:24:21.345Z,76.19
2018-11-06T19:26:48.943Z,75.73
2018-11-06T19:29:16.467Z,75.42
2018-11-06T19:31:43.788Z,75.87
2018-11-06T19:34:13.176Z,74.96
2018-11-06T19:36:40.557Z,75.44
2018-11-06T19:39:10.782Z,75.49
2018-11-06T19:41:39.210Z,75.82
2018-11-06T19:44:07.724Z,75.42
2018-11-06T19:46:35.205Z,75.59
2018-11-06T19:49:02.774Z,75.84
2018-11-06T19:51:30.478Z,75.33
2018-11-06T19:53:57.856Z,74.83
2018-11-06T19:56:26.235Z,73.91
2018-11-06T19:58:53.718Z,74.04
2018-11-06T20:01:21.604Z,74.58
2018-11-06T20:03:49.128Z,75.00
2018-11-06T20:06:27.616Z,75.38
2018-11-06T20:09:08.102Z,75.88
2018-11-06T20:11:40.752Z,75.47
2018-11-06T20:14:09.992Z,75.70
2018-11-06T20:16:38.206Z,76.94
2018-11-06T20:19:07.798Z,76.45
2018-11-06T20:21:35.749Z,76.59
2018-11-06T20:24:03.326Z,77.12
2018-11-06T20:26:30.962Z,76.61
2018-11-06T20:28:58.232Z,77.18
2018-11-06T20:31:25.638Z,77.77
2018-11-06T20:33:54.267Z,78.15
2018-11-06T20:36:21.757Z,77.76
2018-11-06T20:38:50.250Z,77.78
2018-11-06T20:41:17.806Z,78.13
2018-11-06T20:43:45.262Z,77.16
2018-11-06T20:46:13.565Z,76.68
2018-11-06T20:48:41.331Z,77.14
2018-11-06T20:51:09.768Z,77.21
2018-11-06T20:53:37.230Z,77.79
2018-11-06T20:56:06.224Z,79.90
2018-11-06T20:58:35.113Z,80.49
2018-11-06T21:01:05.056Z,81.58
2018-11-06T21:03:32.482Z,81.28
2018-11-06T21:06:00.513Z,81.21
2018-11-06T21:08:27.776Z,80.46
2018-11-06T21:10:56.301Z,80.89
2018-11-06T21:13:23.853Z,80.43
2018-11-06T21:15:51.035Z,80.55
2018-11-06T21:18:20.783Z,80.87
2018-11-06T21:20:49.569Z,81.38
2018-11-06T21:23:17.885Z,81.20
2018-11-06T21:25:45.535Z,82.00
2018-11-06T21:28:13.892Z,81.86
2018-11-06T21:30:41.238Z,82.25
2018-11-06T21:33:08.662Z,83.02
2018-11-06T21:35:38.574Z,83.22
2018-11-06T21:38:06.301Z,83.38
2018-11-06T21:40:33.668Z,83.69
2018-11-06T21:43:01.049Z,83.90
2018-11-06T21:45:28.794Z,84.54
2018-11-06T21:47:58.353Z,84.13
2018-11-06T21:50:26.685Z,83.26
2018-11-06T21:52:56.197Z,84.22
2018-11-06T21:55:23.659Z,83.71
2018-11-06T21:57:53.322Z,83.81
2018-11-06T22:00:21.137Z,85.09
2018-11-06T22:02:48.522Z,85.05
2018-11-06T22:05:17.005Z,84.69
2018-11-06T22:07:44.519Z,85.55
2018-11-06T22:10:15.432Z,85.07
2018-11-06T22:17:36.842Z,86.13
2018-11-06T22:20:05.259Z,85.75
2018-11-06T22:22:35.097Z,85.72
2018-11-06T22:25:03.590Z,85.73
2018-11-06T22:27:30.892Z,85.32
2018-11-06T22:29:58.911Z,85.66
2018-11-06T22:32:27.075Z,85.54
2018-11-06T22:34:56.162Z,84.98
2018-11-06T22:37:23.961Z,85.25
2018-11-06T22:39:51.280Z,84.78
2018-11-06T22:42:19.100Z,84.64
2018-11-06T22:44:47.240Z,85.03
2018-11-06T22:47:14.641Z,85.65
2018-11-06T22:49:42.091Z,85.14
2018-11-06T22:52:10.697Z,85.69
2018-11-06T22:54:39.770Z,85.48
2018-11-06T22:57:07.198Z,84.84
2018-11-06T22:59:35.324Z,84.29
2018-11-06T23:02:02.984Z,84.40
2018-11-06T23:04:30.517Z,85.54
2018-11-06T23:06:57.961Z,85.22
2018-11-06T23:09:25.305Z,85.97
2018-11-06T23:11:53.983Z,86.46
2018-11-06T23:14:21.747Z,86.16
2018-11-06T23:16:51.120Z,87.55
2018-11-06T23:19:19.683Z,86.37
2018-11-06T23:21:47.003Z,86.35
2018-11-06T23:24:14.414Z,86.82
2018-11-06T23:26:42.455Z,86.54
2018-11-06T23:29:09.806Z,86.77
2018-11-06T23:31:39.357Z,86.55
2018-11-06T23:34:07.052Z,86.65
2018-11-06T23:36:34.441Z,86.36
2018-11-06T23:39:04.019Z,86.48
2018-11-06T23:41:32.502Z,86.36
2018-11-06T23:44:01.963Z,86.57
2018-11-06T23:46:29.959Z,85.96
2018-11-06T23:48:57.624Z,87.00
2018-11-06T23:51:25.816Z,87.29
2018-11-06T23:53:54.569Z,86.85
2018-11-06T23:56:22.807Z,86.27
2018-11-06T23:58:49.986Z,86.67
